Time;durP1;ratioP1;P1;durP2;ratioP2;P2;SDS_P1;SDS_P2;PMS_P1;PMS_P2;Temp;Humidity;BMP_temperature;BMP_pressure;BME280_temperature;BME280_humidity;BME280_pressure;Samples;Min_cycle;Max_cycle;Signal;HPM_P1;HPM_P2
2022/01/16 00:00:04;;;;;;;75.57;28.83;;;;;;;;;;5144254;28;20091;-60
2022/01/16 00:05:03;;;;;;;65.78;27.80;;;;;;;;;;5142609;28;20126;-60
2022/01/16 00:07:29;;;;;;;81.03;29.52;;;;;;;;;;5142892;28;20075;-60
2022/01/16 00:09:55;;;;;;;72.50;27.80;;;;;;;;;;5144020;28;20047;-60
2022/01/16 00:12:23;;;;;;;66.78;24.25;;;;;;;;;;5144323;28;20039;-60
2022/01/16 00:14:50;;;;;;;74.38;29.65;;;;;;;;;;5141941;28;20047;-60
2022/01/16 00:17:16;;;;;;;77.13;31.80;;;;;;;;;;5144997;28;20043;-60
2022/01/16 00:19:42;;;;;;;83.25;28.63;;;;;;;;;;5139768;28;20229;-60
2022/01/16 00:22:13;;;;;;;75.43;29.58;;;;;;;;;;5142736;28;20066;-59
2022/01/16 00:24:40;;;;;;;74.10;28.92;;;;;;;;;;5144223;28;20039;-60
2022/01/16 00:27:06;;;;;;;65.78;27.48;;;;;;;;;;5144393;28;20509;-60
2022/01/16 00:29:32;;;;;;;75.18;27.85;;;;;;;;;;5144541;28;20043;-60
2022/01/16 00:31:58;;;;;;;62.25;26.00;;;;;;;;;;5144209;28;20142;-60
2022/01/16 00:34:25;;;;;;;71.50;27.88;;;;;;;;;;5144075;27;20054;-60
2022/01/16 00:36:51;;;;;;;66.30;26.85;;;;;;;;;;5141597;28;20047;-60
2022/01/16 00:39:17;;;;;;;71.55;27.25;;;;;;;;;;5144094;28;20035;-60
2022/01/16 00:41:47;;;;;;;68.85;28.15;;;;;;;;;;5143415;28;20100;-59
2022/01/16 00:44:15;;;;;;;71.68;28.33;;;;;;;;;;5144232;28;20047;-60
2022/01/16 00:46:41;;;;;;;63.85;26.80;;;;;;;;;;5143821;28;20058;-60
2022/01/16 00:49:08;;;;;;;63.13;27.42;;;;;;;;;;5145118;28;20066;-60
2022/01/16 00:51:34;;;;;;;73.13;30.13;;;;;;;;;;5143046;28;20043;-60
2022/01/16 00:54:00;;;;;;;46.47;22.60;;;;;;;;;;5130464;28;20031;-60
2022/01/16 00:56:26;;;;;;;78.57;30.27;;;;;;;;;;5142246;28;20039;-60
2022/01/16 00:58:52;;;;;;;81.38;33.50;;;;;;;;;;5144253;28;20047;-60
2022/01/16 01:01:18;;;;;;;74.80;30.23;;;;;;;;;;5143577;28;20035;-60
2022/01/16 01:03:44;;;;;;;82.55;28.75;;;;;;;;;;5144610;27;20038;-60
2022/01/16 01:06:11;;;;;;;91.07;32.30;;;;;;;;;;5144644;27;20074;-60
2022/01/16 01:08:37;;;;;;;92.05;32.67;;;;;;;;;;5147557;27;20063;-60
2022/01/16 01:11:07;;;;;;;84.18;31.20;;;;;;;;;;5146422;27;20119;-60
2022/01/16 01:13:54;;;;;;;82.45;31.58;;;;;;;;;;5145887;27;20096;-61
2022/01/16 01:16:19;;;;;;;90.35;32.47;;;;;;;;;;5147273;27;20072;-59
2022/01/16 01:18:46;;;;;;;84.25;32.90;;;;;;;;;;5145556;27;20070;-59
2022/01/16 01:21:26;;;;;;;86.18;33.67;;;;;;;;;;5146340;27;20071;-59
2022/01/16 01:23:53;;;;;;;94.55;35.35;;;;;;;;;;5147720;27;20065;-60
2022/01/16 01:26:24;;;;;;;89.15;35.72;;;;;;;;;;5146793;27;20043;-60
2022/01/16 01:28:50;;;;;;;90.93;35.35;;;;;;;;;;5159135;27;20039;-60
2022/01/16 01:31:16;;;;;;;99.72;36.80;;;;;;;;;;5147278;27;20039;-60
2022/01/16 01:33:42;;;;;;;109.15;40.60;;;;;;;;;;5147803;27;20502;-60
2022/01/16 01:36:08;;;;;;;102.47;35.17;;;;;;;;;;5147325;27;20122;-60
2022/01/16 01:38:34;;;;;;;101.07;39.55;;;;;;;;;;5147660;27;20063;-59
2022/01/16 01:41:00;;;;;;;94.40;37.00;;;;;;;;;;5147502;27;20083;-60
2022/01/16 01:51:27;;;;;;;79.75;34.95;;;;;;;;;;5146634;27;19928;-60
2022/01/16 01:53:55;;;;;;;88.85;38.53;;;;;;;;;;5148025;27;20040;-60
2022/01/16 01:56:23;;;;;;;93.55;39.45;;;;;;;;;;5147443;27;20087;-60
2022/01/16 01:58:50;;;;;;;98.13;39.25;;;;;;;;;;5146503;27;20043;-59
2022/01/16 02:01:16;;;;;;;94.88;39.83;;;;;;;;;;5147210;27;20175;-60
2022/01/16 02:03:42;;;;;;;88.57;39.05;;;;;;;;;;5147177;27;20094;-59
2022/01/16 02:06:10;;;;;;;100.55;40.15;;;;;;;;;;5146550;27;20051;-60
2022/01/16 02:08:37;;;;;;;94.45;39.22;;;;;;;;;;5146797;27;20036;-59
2022/01/16 02:11:03;;;;;;;98.05;39.58;;;;;;;;;;5146884;27;20238;-59
2022/01/16 02:13:44;;;;;;;101.78;40.28;;;;;;;;;;5147236;27;20043;-59
2022/01/16 02:35:10;;;;;;;112.32;40.83;;;;;;;;;;5146371;27;20074;-61
2022/01/16 02:37:36;;;;;;;110.85;41.47;;;;;;;;;;5145024;27;20107;-60
2022/01/16 02:40:11;;;;;;;127.43;46.58;;;;;;;;;;5145685;27;20057;-60
2022/01/16 02:42:41;;;;;;;121.85;43.30;;;;;;;;;;5146404;27;20047;-60
2022/01/16 02:45:15;;;;;;;111.50;38.60;;;;;;;;;;5146506;27;20391;-61
2022/01/16 02:47:42;;;;;;;120.55;38.65;;;;;;;;;;5146685;27;20100;-60
2022/01/16 02:50:08;;;;;;;122.07;40.33;;;;;;;;;;5146171;27;20510;-61
2022/01/16 02:52:34;;;;;;;126.22;40.53;;;;;;;;;;5145923;27;20047;-61
2022/01/16 02:55:01;;;;;;;123.18;41.08;;;;;;;;;;5145907;27;20045;-60
2022/01/16 02:57:29;;;;;;;124.22;41.20;;;;;;;;;;5140727;27;20047;-60
2022/01/16 02:59:56;;;;;;;119.60;39.78;;;;;;;;;;5126107;27;20056;-60
2022/01/16 03:02:24;;;;;;;130.43;41.20;;;;;;;;;;5125375;28;20051;-60
2022/01/16 03:04:50;;;;;;;;;;;;;;;;;;5145176;27;20051;-60
2022/01/16 03:07:16;;;;;;;105.80;35.72;;;;;;;;;;5145306;27;19919;-60
2022/01/16 03:12:38;;;;;;;113.50;36.58;;;;;;;;;;5141197;27;20043;-61
2022/01/16 03:15:06;;;;;;;117.55;39.58;;;;;;;;;;5145983;27;20039;-60
2022/01/16 03:21:52;;;;;;;105.25;36.88;;;;;;;;;;5145816;27;20039;-60
2022/01/16 03:23:15;;;;;;;127.78;39.65;;;;;;;;;;5145643;27;20053;-60
2022/01/16 03:25:41;;;;;;;124.93;40.40;;;;;;;;;;5145710;27;20039;-61
2022/01/16 03:28:10;;;;;;;129.95;39.38;;;;;;;;;;5145172;27;20517;-60
2022/01/16 03:30:36;;;;;;;114.93;39.05;;;;;;;;;;5145742;27;20051;-60
2022/01/16 03:33:02;;;;;;;120.97;40.38;;;;;;;;;;5145626;27;20042;-60
2022/01/16 03:35:29;;;;;;;126.03;41.08;;;;;;;;;;5145204;27;20043;-60
2022/01/16 03:37:55;;;;;;;122.07;40.72;;;;;;;;;;5144247;27;20281;-60
2022/01/16 03:40:21;;;;;;;116.72;39.88;;;;;;;;;;5144906;27;20168;-60
2022/01/16 03:42:48;;;;;;;124.18;42.10;;;;;;;;;;5145036;27;20047;-60
2022/01/16 03:45:14;;;;;;;142.00;45.25;;;;;;;;;;5145473;27;20051;-60
2022/01/16 03:47:43;;;;;;;128.95;41.58;;;;;;;;;;5144247;27;20055;-60
2022/01/16 03:50:10;;;;;;;142.82;41.38;;;;;;;;;;5144871;27;20045;-60
2022/01/16 03:52:36;;;;;;;140.98;42.28;;;;;;;;;;5145145;28;20513;-61
2022/01/16 03:55:03;;;;;;;118.45;40.10;;;;;;;;;;5145779;28;20118;-59
2022/01/16 03:57:29;;;;;;;133.98;41.58;;;;;;;;;;5145494;28;20055;-60
2022/01/16 03:59:56;;;;;;;108.57;33.28;;;;;;;;;;5144711;28;20043;-59
2022/01/16 04:02:22;;;;;;;136.63;41.90;;;;;;;;;;5145465;27;20042;-59
2022/01/16 04:04:48;;;;;;;137.25;45.35;;;;;;;;;;5145360;27;20103;-59
2022/01/16 04:07:21;;;;;;;136.10;42.03;;;;;;;;;;5144907;27;20039;-59
2022/01/16 04:09:47;;;;;;;148.85;44.03;;;;;;;;;;5144345;28;20187;-60
2022/01/16 04:12:13;;;;;;;139.40;42.55;;;;;;;;;;5144791;27;20121;-60
2022/01/16 04:17:16;;;;;;;133.68;39.75;;;;;;;;;;5142760;28;20039;-59
2022/01/16 04:19:42;;;;;;;161.10;46.28;;;;;;;;;;5145185;28;20047;-59
2022/01/16 04:22:08;;;;;;;132.30;42.13;;;;;;;;;;5144382;28;20043;-60
2022/01/16 04:24:35;;;;;;;147.80;44.05;;;;;;;;;;5145383;28;20068;-59
2022/01/16 04:27:01;;;;;;;160.57;44.55;;;;;;;;;;5145122;28;20058;-59
2022/01/16 04:29:27;;;;;;;165.02;46.60;;;;;;;;;;5145086;28;20095;-59
2022/01/16 04:31:53;;;;;;;167.77;46.10;;;;;;;;;;5144710;28;20063;-59
2022/01/16 04:34:20;;;;;;;151.77;43.40;;;;;;;;;;5145185;28;20047;-59
2022/01/16 04:36:46;;;;;;;154.38;42.95;;;;;;;;;;5144615;28;20046;-60
2022/01/16 04:39:15;;;;;;;165.80;45.45;;;;;;;;;;5146501;27;20050;-59
2022/01/16 04:44:27;;;;;;;175.68;48.50;;;;;;;;;;5148480;27;20612;-59
2022/01/16 04:46:56;;;;;;;154.70;46.75;;;;;;;;;;5148446;27;20165;-59
2022/01/16 04:49:22;;;;;;;156.32;44.25;;;;;;;;;;5149009;27;20047;-59
2022/01/16 04:51:48;;;;;;;145.27;40.45;;;;;;;;;;5147870;27;20458;-59
2022/01/16 04:54:14;;;;;;;174.82;45.20;;;;;;;;;;5148938;27;20047;-59
2022/01/16 04:56:41;;;;;;;177.48;47.28;;;;;;;;;;5148654;27;20051;-60
2022/01/16 04:59:07;;;;;;;156.35;44.85;;;;;;;;;;5147755;27;20526;-59
2022/01/16 05:01:33;;;;;;;165.23;46.25;;;;;;;;;;5148063;27;20062;-59
2022/01/16 05:03:59;;;;;;;138.63;41.00;;;;;;;;;;5147436;27;20180;-59
2022/01/16 05:06:25;;;;;;;156.75;44.95;;;;;;;;;;5147802;27;20095;-59
2022/01/16 05:08:52;;;;;;;176.35;47.58;;;;;;;;;;5147687;27;20047;-59
2022/01/16 05:11:24;;;;;;;176.63;46.55;;;;;;;;;;5148468;27;20043;-59
2022/01/16 05:16:37;;;;;;;172.18;47.67;;;;;;;;;;5148066;27;20495;-59
2022/01/16 05:19:04;;;;;;;158.35;45.50;;;;;;;;;;5148141;27;20043;-60
2022/01/16 05:21:30;;;;;;;186.73;49.53;;;;;;;;;;5146512;27;20050;-59
2022/01/16 05:23:56;;;;;;;176.60;50.83;;;;;;;;;;5148173;27;20050;-59
2022/01/16 05:26:27;;;;;;;172.43;50.03;;;;;;;;;;5148078;27;20050;-59
2022/01/16 05:28:53;;;;;;;175.98;49.13;;;;;;;;;;5148113;27;20201;-60
2022/01/16 05:31:20;;;;;;;186.23;46.45;;;;;;;;;;5147953;27;20042;-59
2022/01/16 05:33:46;;;;;;;183.85;47.55;;;;;;;;;;5148045;27;20042;-60
2022/01/16 05:36:12;;;;;;;167.77;48.95;;;;;;;;;;5147481;27;20054;-59
2022/01/16 05:38:38;;;;;;;181.70;49.15;;;;;;;;;;5147929;27;20047;-59
2022/01/16 05:41:04;;;;;;;183.65;46.72;;;;;;;;;;5147869;27;20057;-59
2022/01/16 05:43:30;;;;;;;194.40;49.92;;;;;;;;;;5147465;27;20506;-59
2022/01/16 05:45:56;;;;;;;195.18;49.60;;;;;;;;;;5147782;27;20069;-59
2022/01/16 05:48:22;;;;;;;184.52;48.10;;;;;;;;;;5147577;27;20513;-60
2022/01/16 05:50:48;;;;;;;180.75;46.95;;;;;;;;;;5146284;27;20047;-60
2022/01/16 05:53:14;;;;;;;202.88;48.83;;;;;;;;;;5147335;27;20043;-60
2022/01/16 05:55:41;;;;;;;185.73;48.22;;;;;;;;;;5147480;27;20409;-60
2022/01/16 05:58:08;;;;;;;179.23;48.33;;;;;;;;;;5147508;27;20054;-60
2022/01/16 06:00:34;;;;;;;214.82;51.30;;;;;;;;;;5146179;27;20536;-59
2022/01/16 06:03:01;;;;;;;207.27;50.47;;;;;;;;;;5147463;27;20123;-60
2022/01/16 06:05:27;;;;;;;193.73;50.38;;;;;;;;;;5146885;27;20292;-60
2022/01/16 06:07:58;;;;;;;198.48;50.33;;;;;;;;;;5145945;27;20136;-60
2022/01/16 06:10:24;;;;;;;202.52;48.72;;;;;;;;;;5147146;27;20046;-60
2022/01/16 06:12:53;;;;;;;218.40;50.90;;;;;;;;;;5147195;27;20122;-60
2022/01/16 06:15:20;;;;;;;209.43;51.85;;;;;;;;;;5147033;27;20452;-60
2022/01/16 06:17:46;;;;;;;199.02;49.55;;;;;;;;;;5147133;27;20122;-59
2022/01/16 06:20:15;;;;;;;207.98;54.10;;;;;;;;;;5145869;27;20047;-59
2022/01/16 06:22:41;;;;;;;220.88;51.38;;;;;;;;;;5145397;27;20114;-59
2022/01/16 06:25:08;;;;;;;212.50;54.17;;;;;;;;;;5146805;27;20391;-59
2022/01/16 06:27:34;;;;;;;207.30;51.03;;;;;;;;;;5146882;27;20069;-59
2022/01/16 06:30:07;;;;;;;225.02;54.15;;;;;;;;;;5145918;27;20075;-60
2022/01/16 06:32:33;;;;;;;180.23;48.55;;;;;;;;;;5146810;27;20051;-60
2022/01/16 06:35:00;;;;;;;210.90;53.45;;;;;;;;;;5146655;27;20049;-59
2022/01/16 06:37:26;;;;;;;193.80;48.50;;;;;;;;;;5145648;27;20043;-59
2022/01/16 06:39:52;;;;;;;197.13;52.03;;;;;;;;;;5146449;27;20123;-59
2022/01/16 06:42:18;;;;;;;179.43;49.35;;;;;;;;;;5146701;27;20043;-59
2022/01/16 06:44:45;;;;;;;202.45;52.65;;;;;;;;;;5146069;27;20051;-60
2022/01/16 06:47:11;;;;;;;179.77;48.78;;;;;;;;;;5144286;27;21189;-60
2022/01/16 06:49:37;;;;;;;200.80;51.55;;;;;;;;;;5146791;27;20049;-59
2022/01/16 06:52:04;;;;;;;188.45;49.70;;;;;;;;;;5145676;27;20050;-60
2022/01/16 06:54:30;;;;;;;208.80;53.60;;;;;;;;;;5145120;27;20051;-60
2022/01/16 06:56:56;;;;;;;187.88;52.88;;;;;;;;;;5146404;27;20043;-60
2022/01/16 06:59:22;;;;;;;193.05;53.90;;;;;;;;;;5146128;27;20129;-60
2022/01/16 07:01:48;;;;;;;169.80;48.88;;;;;;;;;;5146355;27;20070;-60
2022/01/16 07:04:14;;;;;;;187.13;51.20;;;;;;;;;;5145209;27;20043;-60
2022/01/16 07:06:40;;;;;;;175.88;52.88;;;;;;;;;;5145306;27;20495;-60
2022/01/16 07:09:06;;;;;;;183.07;51.88;;;;;;;;;;5146132;27;20049;-60
2022/01/16 07:11:33;;;;;;;181.65;52.88;;;;;;;;;;5146208;27;20043;-60
2022/01/16 07:13:59;;;;;;;202.07;57.90;;;;;;;;;;5146209;27;20091;-60
2022/01/16 07:16:25;;;;;;;199.93;55.17;;;;;;;;;;5146425;27;20255;-60
2022/01/16 07:18:51;;;;;;;179.70;53.50;;;;;;;;;;5146242;27;20096;-61
2022/01/16 07:21:20;;;;;;;145.57;49.22;;;;;;;;;;5144892;27;20119;-60
2022/01/16 07:23:48;;;;;;;152.10;48.80;;;;;;;;;;5145768;27;20039;-60
2022/01/16 07:26:18;;;;;;;173.88;56.25;;;;;;;;;;5145789;27;20051;-60
2022/01/16 07:28:44;;;;;;;165.45;46.95;;;;;;;;;;5145832;27;20098;-60
2022/01/16 07:31:11;;;;;;;166.52;53.38;;;;;;;;;;5145803;27;20118;-59
2022/01/16 07:33:37;;;;;;;162.60;53.40;;;;;;;;;;5145798;27;20054;-59
2022/01/16 07:36:04;;;;;;;158.90;51.42;;;;;;;;;;5144324;27;20053;-59
2022/01/16 07:38:30;;;;;;;145.10;50.73;;;;;;;;;;5144684;27;20036;-59
2022/01/16 07:40:56;;;;;;;161.70;55.42;;;;;;;;;;5145753;27;20065;-60
2022/01/16 07:43:23;;;;;;;150.73;51.05;;;;;;;;;;5145739;27;20529;-60
2022/01/16 07:45:49;;;;;;;124.63;46.03;;;;;;;;;;5145548;27;20418;-60
2022/01/16 07:48:15;;;;;;;147.88;53.05;;;;;;;;;;5145626;27;20040;-59
2022/01/16 07:50:41;;;;;;;152.77;53.22;;;;;;;;;;5144770;27;20175;-59
2022/01/16 07:53:08;;;;;;;136.20;49.05;;;;;;;;;;5145339;27;20180;-59
2022/01/16 07:55:35;;;;;;;142.23;48.63;;;;;;;;;;5144948;28;20102;-59
2022/01/16 07:58:01;;;;;;;138.52;50.45;;;;;;;;;;5145695;28;20304;-59
2022/01/16 08:00:28;;;;;;;129.30;48.80;;;;;;;;;;5145110;28;20063;-59
2022/01/16 08:02:54;;;;;;;122.93;50.00;;;;;;;;;;5145843;28;20099;-59
2022/01/16 08:05:21;;;;;;;100.10;42.28;;;;;;;;;;5144625;28;20039;-59
2022/01/16 08:07:49;;;;;;;117.00;48.63;;;;;;;;;;5145040;28;20094;-59
2022/01/16 08:10:16;;;;;;;122.53;46.90;;;;;;;;;;5142199;28;20384;-59
2022/01/16 08:12:42;;;;;;;104.15;46.03;;;;;;;;;;5144283;28;20062;-59
2022/01/16 08:15:08;;;;;;;97.80;41.10;;;;;;;;;;5148151;27;20111;-59
2022/01/16 08:17:36;;;;;;;108.93;44.17;;;;;;;;;;5149513;27;20047;-59
2022/01/16 08:20:03;;;;;;;103.18;43.47;;;;;;;;;;5149080;27;20051;-59
2022/01/16 08:22:29;;;;;;;94.55;42.30;;;;;;;;;;5148988;27;20101;-59
2022/01/16 08:24:55;;;;;;;89.30;38.47;;;;;;;;;;5148975;27;20039;-59
2022/01/16 08:27:21;;;;;;;79.72;37.42;;;;;;;;;;5148872;27;20062;-59
2022/01/16 08:29:47;;;;;;;80.53;38.15;;;;;;;;;;5149075;27;20108;-59
2022/01/16 08:32:13;;;;;;;91.03;43.05;;;;;;;;;;5148707;27;20111;-59
2022/01/16 08:34:39;;;;;;;85.65;39.65;;;;;;;;;;5152495;27;20067;-59
2022/01/16 08:37:05;;;;;;;82.40;41.05;;;;;;;;;;5141892;27;20220;-59
2022/01/16 08:39:32;;;;;;;80.63;38.05;;;;;;;;;;5139506;27;20067;-59
2022/01/16 08:41:58;;;;;;;74.13;38.53;;;;;;;;;;5133660;27;20039;-59
2022/01/16 08:44:24;;;;;;;76.82;37.47;;;;;;;;;;5152158;27;20061;-60
2022/01/16 08:46:51;;;;;;;82.43;38.90;;;;;;;;;;5147927;27;20055;-59
2022/01/16 08:49:17;;;;;;;76.13;35.35;;;;;;;;;;5164762;27;20110;-59
2022/01/16 08:51:43;;;;;;;68.85;33.70;;;;;;;;;;5150080;27;20093;-60
2022/01/16 08:54:09;;;;;;;67.88;32.83;;;;;;;;;;5150127;27;20574;-59
2022/01/16 08:56:35;;;;;;;66.93;33.80;;;;;;;;;;5150506;27;20042;-58
2022/01/16 08:59:03;;;;;;;67.25;35.10;;;;;;;;;;5145715;27;20039;-59
2022/01/16 09:01:29;;;;;;;62.65;34.58;;;;;;;;;;5158010;27;20108;-59
2022/01/16 09:03:55;;;;;;;54.53;29.83;;;;;;;;;;5151519;27;20123;-59
2022/01/16 09:06:21;;;;;;;64.70;32.97;;;;;;;;;;5148548;27;20102;-59
2022/01/16 09:08:48;;;;;;;58.95;30.60;;;;;;;;;;5148813;27;20043;-61
2022/01/16 09:11:14;;;;;;;62.35;29.58;;;;;;;;;;5146526;27;20099;-59
2022/01/16 09:13:41;;;;;;;61.25;32.28;;;;;;;;;;5147642;27;20122;-59
2022/01/16 09:16:08;;;;;;;59.13;32.55;;;;;;;;;;5145657;27;20036;-59
2022/01/16 09:18:34;;;;;;;64.97;32.70;;;;;;;;;;5149228;27;20045;-59
2022/01/16 09:21:01;;;;;;;57.90;33.28;;;;;;;;;;5159013;27;20102;-59
2022/01/16 09:23:28;;;;;;;53.92;29.92;;;;;;;;;;5153666;27;20047;-59
2022/01/16 09:25:54;;;;;;;62.13;32.50;;;;;;;;;;5151228;27;20047;-59
2022/01/16 09:28:20;;;;;;;62.53;33.35;;;;;;;;;;5164023;27;20078;-59
2022/01/16 09:30:46;;;;;;;56.83;31.50;;;;;;;;;;5148076;27;20107;-59
2022/01/16 09:33:12;;;;;;;59.33;31.45;;;;;;;;;;5163718;27;20043;-59
2022/01/16 09:35:38;;;;;;;60.15;32.90;;;;;;;;;;5153320;27;20081;-59
2022/01/16 09:38:04;;;;;;;55.22;30.50;;;;;;;;;;5163790;27;20051;-59
2022/01/16 09:40:30;;;;;;;50.33;28.88;;;;;;;;;;5147139;27;20133;-59
2022/01/16 09:42:57;;;;;;;53.03;30.48;;;;;;;;;;5146143;27;20111;-59
2022/01/16 09:45:23;;;;;;;54.90;29.80;;;;;;;;;;5146880;27;20055;-59
2022/01/16 09:47:50;;;;;;;49.63;27.58;;;;;;;;;;5149929;27;20121;-60
2022/01/16 09:50:21;;;;;;;53.47;29.52;;;;;;;;;;5146555;27;20050;-59
2022/01/16 09:52:48;;;;;;;43.40;25.33;;;;;;;;;;5147145;27;20530;-60
2022/01/16 09:55:14;;;;;;;64.25;29.08;;;;;;;;;;5147152;27;20104;-59
2022/01/16 09:57:40;;;;;;;50.83;24.38;;;;;;;;;;5147305;27;20054;-59
2022/01/16 10:00:08;;;;;;;57.63;29.00;;;;;;;;;;5145113;27;20043;-59
2022/01/16 10:02:34;;;;;;;48.20;26.67;;;;;;;;;;5144525;27;20082;-60
2022/01/16 10:05:00;;;;;;;47.65;25.45;;;;;;;;;;5150880;27;20114;-60
2022/01/16 10:07:26;;;;;;;49.35;28.67;;;;;;;;;;5146833;27;20035;-60
2022/01/16 10:10:12;;;;;;;55.97;29.42;;;;;;;;;;5147030;27;20152;-60
2022/01/16 10:12:46;;;;;;;44.90;24.65;;;;;;;;;;5160176;27;20050;-60
2022/01/16 10:15:30;;;;;;;55.08;28.98;;;;;;;;;;5129756;27;20039;-60
2022/01/16 10:17:58;;;;;;;48.92;27.70;;;;;;;;;;5135281;27;20043;-60
2022/01/16 10:20:25;;;;;;;55.22;30.35;;;;;;;;;;5143227;27;20047;-60
2022/01/16 10:22:54;;;;;;;56.58;29.13;;;;;;;;;;5148481;27;20459;-60
2022/01/16 10:25:41;;;;;;;60.20;27.88;;;;;;;;;;5144061;27;20486;-60
2022/01/16 10:28:14;;;;;;;55.35;29.73;;;;;;;;;;5145108;27;20047;-60
2022/01/16 10:30:43;;;;;;;51.67;27.42;;;;;;;;;;5145595;27;20051;-60
2022/01/16 10:33:13;;;;;;;50.03;28.40;;;;;;;;;;5145359;27;20039;-60
2022/01/16 10:35:40;;;;;;;65.93;28.55;;;;;;;;;;5143365;27;20047;-60
2022/01/16 10:38:08;;;;;;;70.35;29.38;;;;;;;;;;5134255;27;20095;-61
2022/01/16 10:40:36;;;;;;;54.60;28.23;;;;;;;;;;5146213;27;20129;-60
2022/01/16 10:43:06;;;;;;;48.58;25.35;;;;;;;;;;5144037;27;20072;-60
2022/01/16 10:45:33;;;;;;;47.70;24.20;;;;;;;;;;5144063;27;20076;-60
2022/01/16 10:48:04;;;;;;;54.08;25.45;;;;;;;;;;5139246;27;20026;-60
2022/01/16 10:50:34;;;;;;;48.13;25.80;;;;;;;;;;5144029;27;20405;-60
2022/01/16 10:53:05;;;;;;;48.35;24.70;;;;;;;;;;5143600;27;20038;-60
2022/01/16 10:55:32;;;;;;;43.72;22.80;;;;;;;;;;5144685;27;20043;-60
2022/01/16 10:58:07;;;;;;;46.20;22.15;;;;;;;;;;5145707;27;20063;-60
2022/01/16 11:00:34;;;;;;;46.55;24.17;;;;;;;;;;5136375;27;20047;-60
2022/01/16 11:03:03;;;;;;;43.58;22.58;;;;;;;;;;5140966;27;20051;-60
2022/01/16 11:05:32;;;;;;;43.13;22.40;;;;;;;;;;5135459;27;20063;-60
2022/01/16 11:08:04;;;;;;;47.47;21.45;;;;;;;;;;5130694;27;20228;-59
2022/01/16 11:10:37;;;;;;;38.85;21.95;;;;;;;;;;5133241;27;20047;-60
2022/01/16 11:13:05;;;;;;;48.42;23.13;;;;;;;;;;5125082;27;20050;-60
2022/01/16 11:15:31;;;;;;;;;;;;;;;;;;5135595;27;20027;-60
2022/01/16 11:17:57;;;;;;;44.67;22.63;;;;;;;;;;5128893;27;19920;-60
2022/01/16 11:20:31;;;;;;;43.30;20.88;;;;;;;;;;5132267;27;20689;-60
2022/01/16 11:23:00;;;;;;;39.45;21.88;;;;;;;;;;5136348;27;20039;-60
2022/01/16 11:25:34;;;;;;;44.75;21.38;;;;;;;;;;5141128;27;20035;-60
2022/01/16 11:28:04;;;;;;;50.70;21.42;;;;;;;;;;5142026;27;20055;-60
2022/01/16 11:30:35;;;;;;;41.53;18.20;;;;;;;;;;5143897;27;20043;-60
2022/01/16 11:33:01;;;;;;;37.65;18.63;;;;;;;;;;5144065;27;20049;-60
2022/01/16 11:35:28;;;;;;;38.83;17.30;;;;;;;;;;5143378;27;20522;-60
2022/01/16 11:37:54;;;;;;;50.50;19.42;;;;;;;;;;5143621;27;20043;-60
2022/01/16 11:40:38;;;;;;;29.80;13.40;;;;;;;;;;5155714;27;20126;-60
2022/01/16 11:43:15;;;;;;;36.83;18.13;;;;;;;;;;5138868;27;20070;-61
2022/01/16 11:45:45;;;;;;;37.80;15.65;;;;;;;;;;5142022;27;20067;-64
2022/01/16 11:48:12;;;;;;;41.83;17.23;;;;;;;;;;5139458;27;20077;-64
2022/01/16 11:50:38;;;;;;;45.13;15.80;;;;;;;;;;5135995;27;20106;-58
2022/01/16 11:53:04;;;;;;;29.70;12.82;;;;;;;;;;5141548;27;20095;-59
2022/01/16 11:55:34;;;;;;;32.63;13.98;;;;;;;;;;5138336;27;20039;-63
2022/01/16 11:58:01;;;;;;;34.30;15.10;;;;;;;;;;5142623;27;20043;-64
2022/01/16 12:00:42;;;;;;;33.90;14.40;;;;;;;;;;5138766;27;20070;-62
2022/01/16 12:03:28;;;;;;;34.75;13.55;;;;;;;;;;5141858;28;20121;-59
2022/01/16 12:05:56;;;;;;;28.65;12.45;;;;;;;;;;5137633;28;20083;-59
2022/01/16 12:08:34;;;;;;;30.10;12.73;;;;;;;;;;5142295;28;20047;-58
2022/01/16 12:11:00;;;;;;;30.98;13.90;;;;;;;;;;5142196;28;20039;-59
2022/01/16 12:13:43;;;;;;;28.10;13.02;;;;;;;;;;5141799;27;20075;-59
2022/01/16 12:16:27;;;;;;;27.35;11.93;;;;;;;;;;5133387;27;20051;-62
2022/01/16 12:18:53;;;;;;;22.75;10.63;;;;;;;;;;5142063;28;20062;-62
2022/01/16 12:21:32;;;;;;;23.23;10.70;;;;;;;;;;5143688;28;20173;-62
2022/01/16 12:23:58;;;;;;;;;;;;;;;;;;5143070;28;20129;-63
2022/01/16 12:26:34;;;;;;;26.80;9.82;;;;;;;;;;5143132;28;19919;-63
2022/01/16 12:29:00;;;;;;;28.92;10.30;;;;;;;;;;5143933;27;20485;-63
2022/01/16 12:31:36;;;;;;;15.20;8.25;;;;;;;;;;5153313;27;20039;-62
2022/01/16 12:34:02;;;;;;;26.58;8.65;;;;;;;;;;5143109;28;20063;-63
2022/01/16 12:36:32;;;;;;;22.02;8.57;;;;;;;;;;5138274;27;20055;-62
2022/01/16 12:39:10;;;;;;;26.80;7.85;;;;;;;;;;5147889;27;20067;-62
2022/01/16 12:41:42;;;;;;;19.67;7.25;;;;;;;;;;5142960;27;20401;-61
2022/01/16 12:44:08;;;;;;;18.45;8.35;;;;;;;;;;5141340;27;20063;-63
2022/01/16 12:46:42;;;;;;;23.35;8.57;;;;;;;;;;5140224;27;20056;-63
2022/01/16 12:49:27;;;;;;;20.00;7.30;;;;;;;;;;5144396;27;20043;-65
2022/01/16 12:51:54;;;;;;;18.48;7.80;;;;;;;;;;5142686;27;20058;-63
2022/01/16 12:54:21;;;;;;;17.17;7.10;;;;;;;;;;5143929;28;20050;-63
2022/01/16 12:56:49;;;;;;;20.75;7.95;;;;;;;;;;5138882;27;20054;-62
2022/01/16 12:59:19;;;;;;;22.48;7.65;;;;;;;;;;5144564;27;20047;-61
2022/01/16 13:01:50;;;;;;;14.02;7.25;;;;;;;;;;5140965;27;20148;-60
2022/01/16 13:04:20;;;;;;;19.02;7.20;;;;;;;;;;5145542;27;20093;-61
2022/01/16 13:06:49;;;;;;;21.88;9.10;;;;;;;;;;5147739;27;20055;-62
2022/01/16 13:09:15;;;;;;;20.02;7.55;;;;;;;;;;5137930;27;20097;-60
2022/01/16 13:11:45;;;;;;;13.23;6.65;;;;;;;;;;5145347;27;20061;-62
2022/01/16 13:14:13;;;;;;;15.40;7.40;;;;;;;;;;5145308;27;20043;-61
2022/01/16 13:16:40;;;;;;;18.58;7.80;;;;;;;;;;5146035;27;20135;-60
2022/01/16 13:19:12;;;;;;;22.67;8.93;;;;;;;;;;5143364;27;20055;-63
2022/01/16 13:21:46;;;;;;;22.73;7.55;;;;;;;;;;5145679;27;20035;-60
2022/01/16 13:24:32;;;;;;;17.33;7.90;;;;;;;;;;5140440;27;20043;-61
2022/01/16 13:26:59;;;;;;;18.52;7.05;;;;;;;;;;5137006;27;20054;-61
2022/01/16 13:29:25;;;;;;;13.17;6.83;;;;;;;;;;5145315;27;20049;-61
2022/01/16 13:31:52;;;;;;;13.98;7.47;;;;;;;;;;5144286;27;20046;-64
2022/01/16 13:34:20;;;;;;;21.23;6.15;;;;;;;;;;5145310;27;20046;-63
2022/01/16 13:36:50;;;;;;;20.98;7.80;;;;;;;;;;5143674;27;20039;-59
2022/01/16 13:39:16;;;;;;;14.75;6.65;;;;;;;;;;5145914;27;20035;-58
2022/01/16 13:41:44;;;;;;;17.00;7.35;;;;;;;;;;5147945;27;20211;-58
2022/01/16 13:44:26;;;;;;;13.43;6.85;;;;;;;;;;5144869;27;20047;-64
2022/01/16 13:46:59;;;;;;;20.40;8.10;;;;;;;;;;5137573;27;20106;-64
2022/01/16 13:49:25;;;;;;;15.77;6.55;;;;;;;;;;5141895;27;20075;-66
2022/01/16 13:51:59;;;;;;;21.48;7.90;;;;;;;;;;5140275;27;20039;-60
2022/01/16 13:54:32;;;;;;;23.48;9.23;;;;;;;;;;5145039;27;20047;-62
2022/01/16 13:57:00;;;;;;;17.30;7.45;;;;;;;;;;5145737;27;20044;-62
2022/01/16 13:59:29;;;;;;;18.77;7.43;;;;;;;;;;5144945;27;20039;-61
2022/01/16 14:01:58;;;;;;;24.45;9.02;;;;;;;;;;5138673;27;20067;-62
2022/01/16 14:04:25;;;;;;;19.65;8.35;;;;;;;;;;5142169;27;20113;-62
2022/01/16 14:06:56;;;;;;;15.98;7.95;;;;;;;;;;5142077;27;20134;-64
2022/01/16 14:09:22;;;;;;;23.83;8.00;;;;;;;;;;5144809;27;20058;-64
2022/01/16 14:11:52;;;;;;;20.58;8.80;;;;;;;;;;5143711;27;20027;-62
2022/01/16 14:14:20;;;;;;;23.13;8.82;;;;;;;;;;5132879;27;20048;-62
2022/01/16 14:17:03;;;;;;;24.35;7.50;;;;;;;;;;5139681;27;20102;-64
2022/01/16 14:22:11;;;;;;;23.52;8.00;;;;;;;;;;5144905;27;20043;-61
2022/01/16 14:24:39;;;;;;;21.52;8.30;;;;;;;;;;5138326;27;20920;-64
2022/01/16 14:27:07;;;;;;;20.65;8.48;;;;;;;;;;5146752;27;20084;-64
2022/01/16 14:29:35;;;;;;;13.10;5.05;;;;;;;;;;5166430;27;20050;-62
2022/01/16 14:32:02;;;;;;;;;;;;;;;;;;5155955;27;20035;-63
2022/01/16 14:34:28;;;;;;;19.67;6.25;;;;;;;;;;5145849;27;19923;-63
2022/01/16 14:36:55;;;;;;;14.20;6.07;;;;;;;;;;5144969;27;20043;-63
2022/01/16 14:39:24;;;;;;;18.77;6.82;;;;;;;;;;5145201;27;20068;-63
2022/01/16 14:41:51;;;;;;;17.95;7.65;;;;;;;;;;5145727;27;20039;-63
2022/01/16 14:44:22;;;;;;;17.23;7.10;;;;;;;;;;5146933;27;20055;-63
2022/01/16 14:46:49;;;;;;;15.45;7.45;;;;;;;;;;5149278;27;20107;-63
2022/01/16 14:49:15;;;;;;;18.50;7.85;;;;;;;;;;5146666;27;20625;-63
2022/01/16 14:51:42;;;;;;;27.98;9.07;;;;;;;;;;5145840;27;20050;-63
2022/01/16 14:54:08;;;;;;;19.52;7.90;;;;;;;;;;5145464;27;20180;-63
2022/01/16 14:56:35;;;;;;;35.45;11.18;;;;;;;;;;5146433;27;20035;-63
2022/01/16 14:59:01;;;;;;;18.67;9.30;;;;;;;;;;5146911;27;20076;-64
2022/01/16 15:01:27;;;;;;;21.98;10.18;;;;;;;;;;5146254;27;20043;-63
2022/01/16 15:03:53;;;;;;;18.48;8.80;;;;;;;;;;5146240;27;20050;-63
2022/01/16 15:06:20;;;;;;;23.23;9.95;;;;;;;;;;5144970;27;20072;-63